sensor_id;sensor_type;location;lat;lon;timestamp;P1;durP1;ratioP1;P2;durP2;ratioP2
56927;SDS011;60850;52.502;13.426;2022-09-01T00:02:03;1.85;;;0.68;;
56927;SDS011;60850;52.502;13.426;2022-09-01T00:04:33;1.83;;;0.80;;
56927;SDS011;60850;52.502;13.426;2022-09-01T00:07:03;3.10;;;0.60;;
56927;SDS011;60850;52.502;13.426;2022-09-01T00:09:30;1.90;;;0.52;;
56927;SDS011;60850;52.502;13.426;2022-09-01T00:11:57;1.10;;;0.60;;
56927;SDS011;60850;52.502;13.426;2022-09-01T00:14:26;1.40;;;0.47;;
56927;SDS011;60850;52.502;13.426;2022-09-01T00:16:57;1.55;;;0.60;;
56927;SDS011;60850;52.502;13.426;2022-09-01T00:19:26;1.40;;;0.60;;
56927;SDS011;60850;52.502;13.426;2022-09-01T00:21:53;1.08;;;0.60;;
56927;SDS011;60850;52.502;13.426;2022-09-01T00:24:21;1.08;;;0.57;;
56927;SDS011;60850;52.502;13.426;2022-09-01T00:29:18;2.28;;;0.63;;
56927;SDS011;60850;52.502;13.426;2022-09-01T00:31:45;1.08;;;0.50;;
56927;SDS011;60850;52.502;13.426;2022-09-01T00:34:14;1.92;;;0.55;;
56927;SDS011;60850;52.502;13.426;2022-09-01T00:36:41;1.00;;;0.50;;
56927;SDS011;60850;52.502;13.426;2022-09-01T00:39:08;2.88;;;0.52;;
56927;SDS011;60850;52.502;13.426;2022-09-01T00:41:37;3.10;;;0.50;;
56927;SDS011;60850;52.502;13.426;2022-09-01T00:44:07;1.08;;;0.60;;
56927;SDS011;60850;52.502;13.426;2022-09-01T00:46:37;0.80;;;0.40;;
56927;SDS011;60850;52.502;13.426;2022-09-01T00:49:11;1.73;;;0.65;;
56927;SDS011;60850;52.502;13.426;2022-09-01T00:51:44;1.48;;;0.55;;
56927;SDS011;60850;52.502;13.426;2022-09-01T00:54:17;0.93;;;0.60;;
56927;SDS011;60850;52.502;13.426;2022-09-01T00:56:47;1.80;;;1.05;;
56927;SDS011;60850;52.502;13.426;2022-09-01T00:59:16;1.27;;;0.55;;
56927;SDS011;60850;52.502;13.426;2022-09-01T01:01:46;0.60;;;0.50;;
56927;SDS011;60850;52.502;13.426;2022-09-01T01:04:15;2.72;;;0.60;;
56927;SDS011;60850;52.502;13.426;2022-09-01T01:06:43;0.95;;;0.50;;
56927;SDS011;60850;52.502;13.426;2022-09-01T01:09:14;1.23;;;0.50;;
56927;SDS011;60850;52.502;13.426;2022-09-01T01:11:41;0.68;;;0.60;;
56927;SDS011;60850;52.502;13.426;2022-09-01T01:14:12;2.88;;;0.55;;
56927;SDS011;60850;52.502;13.426;2022-09-01T01:16:42;1.15;;;0.50;;
56927;SDS011;60850;52.502;13.426;2022-09-01T01:19:11;0.95;;;0.55;;
56927;SDS011;60850;52.502;13.426;2022-09-01T01:22:02;3.65;;;0.70;;
56927;SDS011;60850;52.502;13.426;2022-09-01T01:24:52;0.70;;;0.45;;
56927;SDS011;60850;52.502;13.426;2022-09-01T01:27:21;0.88;;;0.65;;
56927;SDS011;60850;52.502;13.426;2022-09-01T01:29:48;1.10;;;0.60;;
56927;SDS011;60850;52.502;13.426;2022-09-01T01:32:17;1.08;;;0.68;;
56927;SDS011;60850;52.502;13.426;2022-09-01T01:34:45;4.32;;;0.50;;
56927;SDS011;60850;52.502;13.426;2022-09-01T01:37:12;3.15;;;0.60;;
56927;SDS011;60850;52.502;13.426;2022-09-01T01:39:40;0.75;;;0.50;;
56927;SDS011;60850;52.502;13.426;2022-09-01T01:42:10;1.67;;;0.55;;
56927;SDS011;60850;52.502;13.426;2022-09-01T01:44:37;1.85;;;0.70;;
56927;SDS011;60850;52.502;13.426;2022-09-01T01:47:05;1.30;;;0.70;;
56927;SDS011;60850;52.502;13.426;2022-09-01T01:49:37;1.15;;;0.73;;
56927;SDS011;60850;52.502;13.426;2022-09-01T01:52:08;2.10;;;1.40;;
56927;SDS011;60850;52.502;13.426;2022-09-01T01:54:42;1.73;;;0.70;;
56927;SDS011;60850;52.502;13.426;2022-09-01T01:57:11;0.85;;;0.60;;
56927;SDS011;60850;52.502;13.426;2022-09-01T01:59:42;1.92;;;0.70;;
56927;SDS011;60850;52.502;13.426;2022-09-01T02:02:09;1.23;;;0.60;;
56927;SDS011;60850;52.502;13.426;2022-09-01T02:04:37;1.17;;;0.68;;
56927;SDS011;60850;52.502;13.426;2022-09-01T02:07:07;3.17;;;0.50;;
56927;SDS011;60850;52.502;13.426;2022-09-01T02:09:36;0.80;;;0.50;;
56927;SDS011;60850;52.502;13.426;2022-09-01T02:12:05;1.17;;;0.60;;
56927;SDS011;60850;52.502;13.426;2022-09-01T02:14:35;1.00;;;0.65;;
56927;SDS011;60850;52.502;13.426;2022-09-01T02:17:03;1.63;;;0.65;;
56927;SDS011;60850;52.502;13.426;2022-09-01T02:19:31;1.20;;;0.70;;
56927;SDS011;60850;52.502;13.426;2022-09-01T02:22:01;1.30;;;0.50;;
56927;SDS011;60850;52.502;13.426;2022-09-01T02:24:28;2.05;;;0.70;;
56927;SDS011;60850;52.502;13.426;2022-09-01T02:26:56;1.13;;;0.68;;
56927;SDS011;60850;52.502;13.426;2022-09-01T02:29:24;1.65;;;0.60;;
56927;SDS011;60850;52.502;13.426;2022-09-01T02:31:55;2.22;;;0.60;;
56927;SDS011;60850;52.502;13.426;2022-09-01T02:34:22;1.83;;;0.70;;
56927;SDS011;60850;52.502;13.426;2022-09-01T02:36:54;1.75;;;0.63;;
56927;SDS011;60850;52.502;13.426;2022-09-01T02:39:23;2.10;;;0.90;;
56927;SDS011;60850;52.502;13.426;2022-09-01T02:41:52;1.27;;;1.05;;
56927;SDS011;60850;52.502;13.426;2022-09-01T02:44:19;1.05;;;0.60;;
56927;SDS011;60850;52.502;13.426;2022-09-01T02:46:47;1.42;;;0.70;;
56927;SDS011;60850;52.502;13.426;2022-09-01T02:49:17;5.55;;;0.80;;
56927;SDS011;60850;52.502;13.426;2022-09-01T02:51:49;1.30;;;1.23;;
56927;SDS011;60850;52.502;13.426;2022-09-01T02:54:19;1.73;;;0.70;;
56927;SDS011;60850;52.502;13.426;2022-09-01T02:56:49;0.80;;;0.60;;
56927;SDS011;60850;52.502;13.426;2022-09-01T02:59:19;2.35;;;1.17;;
56927;SDS011;60850;52.502;13.426;2022-09-01T03:01:48;2.92;;;0.80;;
56927;SDS011;60850;52.502;13.426;2022-09-01T03:04:18;2.25;;;0.80;;
56927;SDS011;60850;52.502;13.426;2022-09-01T03:06:46;1.73;;;0.77;;
56927;SDS011;60850;52.502;13.426;2022-09-01T03:09:15;2.88;;;1.27;;
56927;SDS011;60850;52.502;13.426;2022-09-01T03:11:44;2.25;;;0.90;;
56927;SDS011;60850;52.502;13.426;2022-09-01T03:14:13;0.98;;;0.82;;
56927;SDS011;60850;52.502;13.426;2022-09-01T03:16:41;2.60;;;1.10;;
56927;SDS011;60850;52.502;13.426;2022-09-01T03:19:08;2.17;;;0.88;;
56927;SDS011;60850;52.502;13.426;2022-09-01T03:21:38;2.38;;;0.80;;
56927;SDS011;60850;52.502;13.426;2022-09-01T03:24:07;1.20;;;1.02;;
56927;SDS011;60850;52.502;13.426;2022-09-01T03:26:36;1.38;;;0.80;;
56927;SDS011;60850;52.502;13.426;2022-09-01T03:29:04;4.10;;;1.27;;
56927;SDS011;60850;52.502;13.426;2022-09-01T03:31:31;2.83;;;0.95;;
56927;SDS011;60850;52.502;13.426;2022-09-01T03:33:58;2.30;;;1.20;;
56927;SDS011;60850;52.502;13.426;2022-09-01T03:36:27;2.80;;;1.25;;
56927;SDS011;60850;52.502;13.426;2022-09-01T03:38:58;4.32;;;1.30;;
56927;SDS011;60850;52.502;13.426;2022-09-01T03:41:27;2.95;;;1.25;;
56927;SDS011;60850;52.502;13.426;2022-09-01T03:43:55;2.80;;;1.10;;
56927;SDS011;60850;52.502;13.426;2022-09-01T03:46:23;3.03;;;1.30;;
56927;SDS011;60850;52.502;13.426;2022-09-01T03:48:52;1.33;;;1.00;;
56927;SDS011;60850;52.502;13.426;2022-09-01T03:51:20;3.35;;;1.40;;
56927;SDS011;60850;52.502;13.426;2022-09-01T03:53:48;3.70;;;1.40;;
56927;SDS011;60850;52.502;13.426;2022-09-01T03:56:20;4.32;;;1.33;;
56927;SDS011;60850;52.502;13.426;2022-09-01T03:58:48;2.97;;;1.52;;
56927;SDS011;60850;52.502;13.426;2022-09-01T04:01:16;4.63;;;1.20;;
56927;SDS011;60850;52.502;13.426;2022-09-01T04:03:44;4.25;;;1.60;;
56927;SDS011;60850;52.502;13.426;2022-09-01T04:06:13;3.13;;;1.30;;
56927;SDS011;60850;52.502;13.426;2022-09-01T04:08:42;2.30;;;1.45;;
56927;SDS011;60850;52.502;13.426;2022-09-01T04:11:13;5.03;;;1.75;;
56927;SDS011;60850;52.502;13.426;2022-09-01T04:13:44;4.53;;;1.50;;
56927;SDS011;60850;52.502;13.426;2022-09-01T04:16:16;4.28;;;2.03;;
56927;SDS011;60850;52.502;13.426;2022-09-01T04:18:58;2.72;;;1.75;;
56927;SDS011;60850;52.502;13.426;2022-09-01T04:21:25;3.78;;;1.92;;
56927;SDS011;60850;52.502;13.426;2022-09-01T04:23:54;2.65;;;1.90;;
56927;SDS011;60850;52.502;13.426;2022-09-01T04:26:24;3.80;;;1.95;;
56927;SDS011;60850;52.502;13.426;2022-09-01T04:28:55;2.40;;;1.60;;
56927;SDS011;60850;52.502;13.426;2022-09-01T04:31:22;5.65;;;2.20;;
56927;SDS011;60850;52.502;13.426;2022-09-01T04:33:51;2.13;;;1.13;;
56927;SDS011;60850;52.502;13.426;2022-09-01T04:36:19;4.75;;;2.13;;
56927;SDS011;60850;52.502;13.426;2022-09-01T04:38:48;3.42;;;1.73;;
56927;SDS011;60850;52.502;13.426;2022-09-01T04:41:19;3.50;;;1.80;;
56927;SDS011;60850;52.502;13.426;2022-09-01T04:43:47;3.55;;;1.65;;
56927;SDS011;60850;52.502;13.426;2022-09-01T04:46:18;3.83;;;1.90;;
56927;SDS011;60850;52.502;13.426;2022-09-01T04:48:45;2.80;;;1.70;;
56927;SDS011;60850;52.502;13.426;2022-09-01T04:51:13;4.35;;;1.80;;
56927;SDS011;60850;52.502;13.426;2022-09-01T04:53:40;3.80;;;1.52;;
56927;SDS011;60850;52.502;13.426;2022-09-01T04:56:13;3.35;;;1.70;;
56927;SDS011;60850;52.502;13.426;2022-09-01T04:58:43;4.60;;;1.60;;
56927;SDS011;60850;52.502;13.426;2022-09-01T05:01:14;6.28;;;2.05;;
56927;SDS011;60850;52.502;13.426;2022-09-01T05:03:44;6.22;;;1.80;;
56927;SDS011;60850;52.502;13.426;2022-09-01T05:06:12;3.25;;;2.17;;
56927;SDS011;60850;52.502;13.426;2022-09-01T05:08:41;2.75;;;1.92;;
56927;SDS011;60850;52.502;13.426;2022-09-01T05:11:10;2.60;;;1.85;;
56927;SDS011;60850;52.502;13.426;2022-09-01T05:13:40;3.25;;;2.05;;
56927;SDS011;60850;52.502;13.426;2022-09-01T05:16:08;2.95;;;1.75;;
56927;SDS011;60850;52.502;13.426;2022-09-01T05:18:37;3.50;;;1.80;;
56927;SDS011;60850;52.502;13.426;2022-09-01T05:21:10;2.85;;;1.30;;
56927;SDS011;60850;52.502;13.426;2022-09-01T05:23:39;2.72;;;1.67;;
56927;SDS011;60850;52.502;13.426;2022-09-01T05:26:10;8.27;;;2.17;;
56927;SDS011;60850;52.502;13.426;2022-09-01T05:28:41;4.97;;;2.28;;
56927;SDS011;60850;52.502;13.426;2022-09-01T05:31:08;4.60;;;1.73;;
56927;SDS011;60850;52.502;13.426;2022-09-01T05:33:35;3.58;;;1.67;;
56927;SDS011;60850;52.502;13.426;2022-09-01T05:36:04;3.33;;;1.60;;
56927;SDS011;60850;52.502;13.426;2022-09-01T05:38:34;5.07;;;1.70;;
56927;SDS011;60850;52.502;13.426;2022-09-01T05:41:02;2.17;;;1.17;;
56927;SDS011;60850;52.502;13.426;2022-09-01T05:43:33;3.35;;;1.73;;
56927;SDS011;60850;52.502;13.426;2022-09-01T05:46:00;3.17;;;1.88;;
56927;SDS011;60850;52.502;13.426;2022-09-01T05:48:28;3.03;;;1.42;;
56927;SDS011;60850;52.502;13.426;2022-09-01T05:50:55;2.30;;;1.33;;
56927;SDS011;60850;52.502;13.426;2022-09-01T05:53:24;3.55;;;1.55;;
56927;SDS011;60850;52.502;13.426;2022-09-01T05:55:52;2.53;;;1.45;;
56927;SDS011;60850;52.502;13.426;2022-09-01T05:58:21;3.15;;;1.52;;
56927;SDS011;60850;52.502;13.426;2022-09-01T06:00:50;4.72;;;1.40;;
56927;SDS011;60850;52.502;13.426;2022-09-01T06:03:20;4.80;;;1.60;;
56927;SDS011;60850;52.502;13.426;2022-09-01T06:05:49;3.05;;;1.70;;
56927;SDS011;60850;52.502;13.426;2022-09-01T06:08:21;2.67;;;1.50;;
56927;SDS011;60850;52.502;13.426;2022-09-01T06:10:54;3.03;;;1.33;;
56927;SDS011;60850;52.502;13.426;2022-09-01T06:13:21;2.47;;;1.10;;
56927;SDS011;60850;52.502;13.426;2022-09-01T06:15:48;2.83;;;1.20;;
56927;SDS011;60850;52.502;13.426;2022-09-01T06:18:18;5.30;;;1.50;;
56927;SDS011;60850;52.502;13.426;2022-09-01T06:20:47;2.83;;;1.25;;
56927;SDS011;60850;52.502;13.426;2022-09-01T06:23:15;3.97;;;1.10;;
56927;SDS011;60850;52.502;13.426;2022-09-01T06:25:43;3.97;;;1.20;;
56927;SDS011;60850;52.502;13.426;2022-09-01T06:28:13;3.22;;;1.25;;
56927;SDS011;60850;52.502;13.426;2022-09-01T06:30:41;6.78;;;1.20;;
56927;SDS011;60850;52.502;13.426;2022-09-01T06:33:11;3.25;;;1.30;;
56927;SDS011;60850;52.502;13.426;2022-09-01T06:35:38;4.80;;;1.48;;
56927;SDS011;60850;52.502;13.426;2022-09-01T06:38:06;4.25;;;1.05;;
56927;SDS011;60850;52.502;13.426;2022-09-01T06:40:34;2.05;;;0.77;;
56927;SDS011;60850;52.502;13.426;2022-09-01T06:43:04;1.73;;;1.00;;
56927;SDS011;60850;52.502;13.426;2022-09-01T06:45:34;3.95;;;1.00;;
56927;SDS011;60850;52.502;13.426;2022-09-01T06:48:06;2.70;;;0.85;;
56927;SDS011;60850;52.502;13.426;2022-09-01T06:50:34;2.25;;;0.80;;
56927;SDS011;60850;52.502;13.426;2022-09-01T06:53:03;1.73;;;1.02;;
56927;SDS011;60850;52.502;13.426;2022-09-01T06:55:33;2.38;;;0.88;;
56927;SDS011;60850;52.502;13.426;2022-09-01T06:58:01;2.60;;;0.88;;
56927;SDS011;60850;52.502;13.426;2022-09-01T07:00:31;3.13;;;0.77;;
56927;SDS011;60850;52.502;13.426;2022-09-01T07:03:06;1.70;;;0.82;;
56927;SDS011;60850;52.502;13.426;2022-09-01T07:05:37;3.17;;;1.02;;
56927;SDS011;60850;52.502;13.426;2022-09-01T07:08:04;1.65;;;0.70;;
56927;SDS011;60850;52.502;13.426;2022-09-01T07:10:38;3.28;;;0.75;;
56927;SDS011;60850;52.502;13.426;2022-09-01T07:13:05;1.80;;;0.77;;
56927;SDS011;60850;52.502;13.426;2022-09-01T07:15:38;3.53;;;0.52;;
56927;SDS011;60850;52.502;13.426;2022-09-01T07:18:05;2.47;;;0.70;;
56927;SDS011;60850;52.502;13.426;2022-09-01T07:20:32;3.72;;;0.85;;
56927;SDS011;60850;52.502;13.426;2022-09-01T07:23:03;3.72;;;0.80;;
56927;SDS011;60850;52.502;13.426;2022-09-01T07:25:30;1.58;;;0.60;;
56927;SDS011;60850;52.502;13.426;2022-09-01T07:27:58;2.92;;;0.50;;
56927;SDS011;60850;52.502;13.426;2022-09-01T07:30:25;2.03;;;0.40;;
56927;SDS011;60850;52.502;13.426;2022-09-01T07:32:54;1.92;;;0.57;;
56927;SDS011;60850;52.502;13.426;2022-09-01T07:35:22;0.88;;;0.50;;
56927;SDS011;60850;52.502;13.426;2022-09-01T07:37:49;1.42;;;0.50;;
56927;SDS011;60850;52.502;13.426;2022-09-01T07:40:17;1.90;;;0.70;;
56927;SDS011;60850;52.502;13.426;2022-09-01T07:42:47;1.27;;;0.47;;
56927;SDS011;60850;52.502;13.426;2022-09-01T07:45:18;3.10;;;0.63;;
56927;SDS011;60850;52.502;13.426;2022-09-01T07:47:46;0.90;;;0.60;;
56927;SDS011;60850;52.502;13.426;2022-09-01T07:50:14;2.05;;;0.60;;
56927;SDS011;60850;52.502;13.426;2022-09-01T07:52:42;0.95;;;0.45;;
56927;SDS011;60850;52.502;13.426;2022-09-01T07:55:14;1.83;;;0.93;;
56927;SDS011;60850;52.502;13.426;2022-09-01T07:57:43;1.23;;;0.50;;
56927;SDS011;60850;52.502;13.426;2022-09-01T08:00:11;1.60;;;0.40;;
56927;SDS011;60850;52.502;13.426;2022-09-01T08:02:39;1.75;;;0.40;;
56927;SDS011;60850;52.502;13.426;2022-09-01T08:05:08;2.13;;;0.52;;
56927;SDS011;60850;52.502;13.426;2022-09-01T08:07:39;0.90;;;0.43;;
56927;SDS011;60850;52.502;13.426;2022-09-01T08:10:07;1.23;;;0.45;;
56927;SDS011;60850;52.502;13.426;2022-09-01T08:12:34;3.78;;;0.70;;
56927;SDS011;60850;52.502;13.426;2022-09-01T08:15:01;2.13;;;0.60;;
56927;SDS011;60850;52.502;13.426;2022-09-01T08:17:29;2.33;;;0.55;;
56927;SDS011;60850;52.502;13.426;2022-09-01T08:19:55;1.10;;;0.70;;
56927;SDS011;60850;52.502;13.426;2022-09-01T08:22:23;1.75;;;0.60;;
56927;SDS011;60850;52.502;13.426;2022-09-01T08:24:51;1.27;;;0.30;;
56927;SDS011;60850;52.502;13.426;2022-09-01T08:27:18;0.90;;;0.40;;
56927;SDS011;60850;52.502;13.426;2022-09-01T08:29:46;1.23;;;0.38;;
56927;SDS011;60850;52.502;13.426;2022-09-01T08:32:13;0.77;;;0.60;;
56927;SDS011;60850;52.502;13.426;2022-09-01T08:34:40;1.15;;;0.45;;
56927;SDS011;60850;52.502;13.426;2022-09-01T08:37:07;1.90;;;0.50;;
56927;SDS011;60850;52.502;13.426;2022-09-01T08:39:34;2.58;;;1.38;;
56927;SDS011;60850;52.502;13.426;2022-09-01T08:42:05;1.42;;;0.40;;
56927;SDS011;60850;52.502;13.426;2022-09-01T08:44:43;3.45;;;0.70;;
56927;SDS011;60850;52.502;13.426;2022-09-01T08:47:19;1.88;;;0.80;;
56927;SDS011;60850;52.502;13.426;2022-09-01T08:49:46;1.77;;;0.45;;
56927;SDS011;60850;52.502;13.426;2022-09-01T08:52:17;0.93;;;0.30;;
56927;SDS011;60850;52.502;13.426;2022-09-01T08:54:50;1.15;;;0.40;;
56927;SDS011;60850;52.502;13.426;2022-09-01T08:57:23;2.17;;;0.55;;
56927;SDS011;60850;52.502;13.426;2022-09-01T08:59:55;2.00;;;0.40;;
56927;SDS011;60850;52.502;13.426;2022-09-01T09:02:26;2.60;;;0.47;;
56927;SDS011;60850;52.502;13.426;2022-09-01T09:05:05;1.63;;;0.52;;
56927;SDS011;60850;52.502;13.426;2022-09-01T09:07:37;2.78;;;0.60;;
56927;SDS011;60850;52.502;13.426;2022-09-01T09:10:20;1.20;;;0.68;;
56927;SDS011;60850;52.502;13.426;2022-09-01T09:12:56;3.47;;;0.47;;
56927;SDS011;60850;52.502;13.426;2022-09-01T09:15:36;0.40;;;0.40;;
56927;SDS011;60850;52.502;13.426;2022-09-01T09:18:10;1.13;;;0.40;;
56927;SDS011;60850;52.502;13.426;2022-09-01T09:20:42;0.85;;;0.60;;
56927;SDS011;60850;52.502;13.426;2022-09-01T09:23:11;1.15;;;0.70;;
56927;SDS011;60850;52.502;13.426;2022-09-01T09:25:46;0.77;;;0.40;;
56927;SDS011;60850;52.502;13.426;2022-09-01T09:28:14;1.48;;;0.60;;
56927;SDS011;60850;52.502;13.426;2022-09-01T09:30:41;1.50;;;0.80;;
56927;SDS011;60850;52.502;13.426;2022-09-01T09:33:08;0.70;;;0.40;;
56927;SDS011;60850;52.502;13.426;2022-09-01T09:35:57;2.83;;;0.70;;
56927;SDS011;60850;52.502;13.426;2022-09-01T09:38:43;1.58;;;0.60;;
56927;SDS011;60850;52.502;13.426;2022-09-01T09:41:14;1.13;;;0.45;;
56927;SDS011;60850;52.502;13.426;2022-09-01T09:43:44;1.30;;;0.32;;
56927;SDS011;60850;52.502;13.426;2022-09-01T09:46:24;1.30;;;0.60;;
56927;SDS011;60850;52.502;13.426;2022-09-01T09:51:43;1.02;;;0.70;;
56927;SDS011;60850;52.502;13.426;2022-09-01T09:54:14;1.52;;;0.50;;
56927;SDS011;60850;52.502;13.426;2022-09-01T09:56:44;2.00;;;0.57;;
56927;SDS011;60850;52.502;13.426;2022-09-01T09:59:17;1.42;;;0.50;;
56927;SDS011;60850;52.502;13.426;2022-09-01T10:01:48;1.65;;;0.50;;
56927;SDS011;60850;52.502;13.426;2022-09-01T10:04:29;2.20;;;0.65;;
56927;SDS011;60850;52.502;13.426;2022-09-01T10:07:00;1.25;;;0.40;;
56927;SDS011;60850;52.502;13.426;2022-09-01T10:09:34;1.30;;;0.40;;
56927;SDS011;60850;52.502;13.426;2022-09-01T10:12:03;0.93;;;0.38;;
56927;SDS011;60850;52.502;13.426;2022-09-01T10:14:32;1.67;;;0.40;;
56927;SDS011;60850;52.502;13.426;2022-09-01T10:17:08;1.77;;;0.35;;
56927;SDS011;60850;52.502;13.426;2022-09-01T10:19:38;1.52;;;0.43;;
56927;SDS011;60850;52.502;13.426;2022-09-01T10:24:40;0.63;;;0.30;;
56927;SDS011;60850;52.502;13.426;2022-09-01T10:27:10;1.63;;;0.40;;
56927;SDS011;60850;52.502;13.426;2022-09-01T10:29:42;0.98;;;0.38;;
56927;SDS011;60850;52.502;13.426;2022-09-01T10:32:15;1.95;;;0.30;;
56927;SDS011;60850;52.502;13.426;2022-09-01T10:34:45;2.20;;;0.45;;
56927;SDS011;60850;52.502;13.426;2022-09-01T10:37:15;0.43;;;0.20;;
56927;SDS011;60850;52.502;13.426;2022-09-01T10:42:45;1.27;;;0.43;;
56927;SDS011;60850;52.502;13.426;2022-09-01T10:45:28;2.10;;;0.40;;
56927;SDS011;60850;52.502;13.426;2022-09-01T10:50:49;0.98;;;0.30;;
56927;SDS011;60850;52.502;13.426;2022-09-01T10:56:07;0.90;;;0.43;;
56927;SDS011;60850;52.502;13.426;2022-09-01T10:58:42;1.70;;;0.30;;
56927;SDS011;60850;52.502;13.426;2022-09-01T11:04:20;1.15;;;0.30;;
56927;SDS011;60850;52.502;13.426;2022-09-01T11:06:55;0.30;;;0.30;;
56927;SDS011;60850;52.502;13.426;2022-09-01T11:09:31;3.72;;;0.52;;
56927;SDS011;60850;52.502;13.426;2022-09-01T11:12:09;4.13;;;0.38;;
56927;SDS011;60850;52.502;13.426;2022-09-01T11:14:49;1.63;;;0.40;;
56927;SDS011;60850;52.502;13.426;2022-09-01T11:17:19;2.53;;;0.40;;
56927;SDS011;60850;52.502;13.426;2022-09-01T11:19:56;2.35;;;0.40;;
56927;SDS011;60850;52.502;13.426;2022-09-01T11:22:31;2.60;;;0.63;;
56927;SDS011;60850;52.502;13.426;2022-09-01T11:25:29;0.68;;;0.30;;
56927;SDS011;60850;52.502;13.426;2022-09-01T11:31:15;1.73;;;0.75;;
56927;SDS011;60850;52.502;13.426;2022-09-01T11:33:52;0.60;;;0.45;;
56927;SDS011;60850;52.502;13.426;2022-09-01T11:36:45;1.25;;;0.43;;
56927;SDS011;60850;52.502;13.426;2022-09-01T11:39:23;4.93;;;0.50;;
56927;SDS011;60850;52.502;13.426;2022-09-01T11:41:59;0.50;;;0.20;;
56927;SDS011;60850;52.502;13.426;2022-09-01T11:44:30;1.33;;;0.47;;
56927;SDS011;60850;52.502;13.426;2022-09-01T11:47:03;1.30;;;0.20;;
56927;SDS011;60850;52.502;13.426;2022-09-01T11:49:33;1.35;;;0.22;;
56927;SDS011;60850;52.502;13.426;2022-09-01T11:52:02;1.00;;;0.40;;
56927;SDS011;60850;52.502;13.426;2022-09-01T11:54:36;2.35;;;0.57;;
56927;SDS011;60850;52.502;13.426;2022-09-01T11:57:20;1.05;;;0.40;;
56927;SDS011;60850;52.502;13.426;2022-09-01T11:59:49;0.80;;;0.40;;
56927;SDS011;60850;52.502;13.426;2022-09-01T12:02:18;1.38;;;0.40;;
56927;SDS011;60850;52.502;13.426;2022-09-01T12:04:47;2.08;;;1.00;;
56927;SDS011;60850;52.502;13.426;2022-09-01T12:07:23;1.77;;;0.40;;
56927;SDS011;60850;52.502;13.426;2022-09-01T12:09:53;1.02;;;0.40;;
56927;SDS011;60850;52.502;13.426;2022-09-01T12:12:27;3.20;;;0.60;;
56927;SDS011;60850;52.502;13.426;2022-09-01T12:14:56;4.22;;;0.50;;
56927;SDS011;60850;52.502;13.426;2022-09-01T12:17:24;0.88;;;0.50;;
56927;SDS011;60850;52.502;13.426;2022-09-01T12:19:52;5.57;;;0.77;;
56927;SDS011;60850;52.502;13.426;2022-09-01T12:22:19;1.42;;;0.50;;
56927;SDS011;60850;52.502;13.426;2022-09-01T12:24:49;1.35;;;0.50;;
56927;SDS011;60850;52.502;13.426;2022-09-01T12:27:18;0.90;;;0.30;;
56927;SDS011;60850;52.502;13.426;2022-09-01T12:29:49;4.50;;;0.68;;
56927;SDS011;60850;52.502;13.426;2022-09-01T12:32:17;1.67;;;0.40;;
56927;SDS011;60850;52.502;13.426;2022-09-01T12:34:46;6.35;;;0.85;;
56927;SDS011;60850;52.502;13.426;2022-09-01T12:37:25;1.50;;;0.52;;
56927;SDS011;60850;52.502;13.426;2022-09-01T12:39:53;2.63;;;0.50;;
56927;SDS011;60850;52.502;13.426;2022-09-01T12:42:23;3.80;;;0.40;;
56927;SDS011;60850;52.502;13.426;2022-09-01T12:44:56;1.65;;;0.52;;
56927;SDS011;60850;52.502;13.426;2022-09-01T12:47:45;1.63;;;0.50;;
56927;SDS011;60850;52.502;13.426;2022-09-01T12:50:34;1.35;;;0.60;;
56927;SDS011;60850;52.502;13.426;2022-09-01T12:53:13;1.67;;;0.60;;
56927;SDS011;60850;52.502;13.426;2022-09-01T12:55:53;0.50;;;0.30;;
56927;SDS011;60850;52.502;13.426;2022-09-01T12:58:26;1.67;;;0.50;;
56927;SDS011;60850;52.502;13.426;2022-09-01T13:00:57;2.38;;;0.50;;
56927;SDS011;60850;52.502;13.426;2022-09-01T13:03:29;1.30;;;0.70;;
56927;SDS011;60850;52.502;13.426;2022-09-01T13:05:58;0.60;;;0.35;;
56927;SDS011;60850;52.502;13.426;2022-09-01T13:08:28;1.20;;;0.38;;
56927;SDS011;60850;52.502;13.426;2022-09-01T13:10:58;0.75;;;0.43;;
56927;SDS011;60850;52.502;13.426;2022-09-01T13:13:29;0.93;;;0.30;;
56927;SDS011;60850;52.502;13.426;2022-09-01T13:16:01;1.05;;;0.25;;
56927;SDS011;60850;52.502;13.426;2022-09-01T13:18:37;0.80;;;0.40;;
56927;SDS011;60850;52.502;13.426;2022-09-01T13:21:05;6.40;;;1.30;;
56927;SDS011;60850;52.502;13.426;2022-09-01T13:23:32;6.05;;;0.80;;
56927;SDS011;60850;52.502;13.426;2022-09-01T13:26:00;1.00;;;0.50;;
56927;SDS011;60850;52.502;13.426;2022-09-01T13:28:27;0.55;;;0.22;;
56927;SDS011;60850;52.502;13.426;2022-09-01T13:30:56;0.60;;;0.30;;
56927;SDS011;60850;52.502;13.426;2022-09-01T13:33:26;0.70;;;0.40;;
56927;SDS011;60850;52.502;13.426;2022-09-01T13:35:53;0.98;;;0.35;;
56927;SDS011;60850;52.502;13.426;2022-09-01T13:38:20;0.93;;;0.40;;
56927;SDS011;60850;52.502;13.426;2022-09-01T13:40:50;0.98;;;0.40;;
56927;SDS011;60850;52.502;13.426;2022-09-01T13:43:19;0.60;;;0.40;;
56927;SDS011;60850;52.502;13.426;2022-09-01T13:45:58;1.52;;;0.40;;
56927;SDS011;60850;52.502;13.426;2022-09-01T13:48:29;1.50;;;0.50;;
56927;SDS011;60850;52.502;13.426;2022-09-01T13:50:59;1.10;;;0.30;;
56927;SDS011;60850;52.502;13.426;2022-09-01T13:53:27;1.52;;;0.43;;
56927;SDS011;60850;52.502;13.426;2022-09-01T13:55:56;1.33;;;0.57;;
56927;SDS011;60850;52.502;13.426;2022-09-01T13:58:30;0.30;;;0.25;;
56927;SDS011;60850;52.502;13.426;2022-09-01T14:00:58;1.80;;;0.70;;
56927;SDS011;60850;52.502;13.426;2022-09-01T14:03:28;0.90;;;0.40;;
56927;SDS011;60850;52.502;13.426;2022-09-01T14:05:59;8.45;;;0.93;;
56927;SDS011;60850;52.502;13.426;2022-09-01T14:08:27;0.77;;;0.32;;
56927;SDS011;60850;52.502;13.426;2022-09-01T14:10:59;3.28;;;0.60;;
56927;SDS011;60850;52.502;13.426;2022-09-01T14:13:29;1.05;;;0.50;;
56927;SDS011;60850;52.502;13.426;2022-09-01T14:15:57;1.20;;;0.50;;
56927;SDS011;60850;52.502;13.426;2022-09-01T14:18:29;2.88;;;0.63;;
56927;SDS011;60850;52.502;13.426;2022-09-01T14:21:01;1.95;;;0.55;;
56927;SDS011;60850;52.502;13.426;2022-09-01T14:23:29;1.77;;;1.30;;
56927;SDS011;60850;52.502;13.426;2022-09-01T14:25:58;2.58;;;0.60;;
56927;SDS011;60850;52.502;13.426;2022-09-01T14:28:27;2.42;;;0.82;;
56927;SDS011;60850;52.502;13.426;2022-09-01T14:31:00;2.10;;;1.85;;
56927;SDS011;60850;52.502;13.426;2022-09-01T14:33:31;2.20;;;0.95;;
56927;SDS011;60850;52.502;13.426;2022-09-01T14:35:58;4.15;;;0.50;;
56927;SDS011;60850;52.502;13.426;2022-09-01T14:38:28;3.40;;;2.20;;
56927;SDS011;60850;52.502;13.426;2022-09-01T14:41:01;1.48;;;0.68;;
56927;SDS011;60850;52.502;13.426;2022-09-01T14:43:28;2.97;;;0.80;;
56927;SDS011;60850;52.502;13.426;2022-09-01T14:46:06;1.25;;;0.47;;
56927;SDS011;60850;52.502;13.426;2022-09-01T14:48:39;0.40;;;0.40;;
56927;SDS011;60850;52.502;13.426;2022-09-01T14:51:16;0.60;;;0.40;;
56927;SDS011;60850;52.502;13.426;2022-09-01T14:53:46;1.00;;;0.30;;
56927;SDS011;60850;52.502;13.426;2022-09-01T14:56:17;3.30;;;0.50;;
56927;SDS011;60850;52.502;13.426;2022-09-01T14:58:43;2.72;;;0.50;;
56927;SDS011;60850;52.502;13.426;2022-09-01T15:01:12;1.95;;;0.50;;
56927;SDS011;60850;52.502;13.426;2022-09-01T15:03:42;0.75;;;0.60;;
56927;SDS011;60850;52.502;13.426;2022-09-01T15:06:10;0.80;;;0.52;;
56927;SDS011;60850;52.502;13.426;2022-09-01T15:08:38;1.63;;;0.47;;
56927;SDS011;60850;52.502;13.426;2022-09-01T15:11:07;1.13;;;0.50;;
56927;SDS011;60850;52.502;13.426;2022-09-01T15:13:35;0.68;;;0.50;;
56927;SDS011;60850;52.502;13.426;2022-09-01T15:16:02;1.73;;;0.30;;